createdAt,value
2022-10-18T00:01:36.911Z,99082.19
2022-10-18T00:04:40.265Z,99087.38
2022-10-18T00:07:44.886Z,99087.38
2022-10-18T00:10:48.677Z,99082.41
2022-10-18T00:13:52.059Z,99093.59
2022-10-18T00:16:55.573Z,99066.63
2022-10-18T00:19:58.740Z,99096.31
2022-10-18T00:23:03.286Z,99100.78
2022-10-18T00:26:09.187Z,99095.91
2022-10-18T00:29:16.750Z,99104.47
2022-10-18T00:32:20.194Z,99108.44
2022-10-18T00:35:23.549Z,99097.53
2022-10-18T00:38:28.106Z,99098.94
2022-10-18T00:41:33.538Z,99093.50
2022-10-18T00:45:16.612Z,99102.72
2022-10-18T00:48:21.971Z,99098.25
2022-10-18T00:51:28.487Z,99065.31
2022-10-18T00:54:36.695Z,99090.72
2022-10-18T00:57:42.799Z,99089.72
2022-10-18T01:00:46.248Z,99062.06
2022-10-18T01:03:50.363Z,99069.72
2022-10-18T01:07:07.410Z,99092.19
2022-10-18T01:10:25.050Z,99094.69
2022-10-18T01:13:40.687Z,99084.94
2022-10-18T01:16:57.087Z,99087.53
2022-10-18T01:20:18.715Z,99069.31
2022-10-18T01:23:34.501Z,99078.09
2022-10-18T01:26:58.214Z,99058.13
2022-10-18T01:30:29.940Z,99078.91
2022-10-18T01:33:40.050Z,99076.97
2022-10-18T01:36:45.249Z,99066.13
2022-10-18T01:39:54.278Z,99080.88
2022-10-18T01:42:57.728Z,99073.41
2022-10-18T01:46:03.616Z,99067.31
2022-10-18T01:49:07.382Z,99076.53
2022-10-18T01:52:12.194Z,99077.75
2022-10-18T01:55:15.770Z,99080.41
2022-10-18T01:58:24.865Z,99060.91
2022-10-18T02:01:41.211Z,99079.19
2022-10-18T02:04:53.038Z,99080.09
2022-10-18T02:08:19.254Z,99078.28
2022-10-18T02:11:28.319Z,99069.66
2022-10-18T02:14:33.145Z,99067.44
2022-10-18T02:17:39.129Z,99054.75
2022-10-18T02:20:43.016Z,99080.03
2022-10-18T02:23:47.334Z,99082.81
2022-10-18T02:26:50.603Z,99074.13
2022-10-18T02:29:54.196Z,99084.44
2022-10-18T02:33:04.905Z,99083.59
2022-10-18T02:36:14.347Z,99082.03
2022-10-18T02:39:21.007Z,99073.56
2022-10-18T02:42:24.367Z,99088.22
2022-10-18T02:45:28.170Z,99080.50
2022-10-18T02:48:32.696Z,99083.28
2022-10-18T02:51:36.133Z,99083.56
2022-10-18T02:54:39.572Z,99082.66
2022-10-18T02:57:42.905Z,99082.72
2022-10-18T03:00:46.051Z,99076.59
2022-10-18T03:03:50.698Z,99070.97
2022-10-18T03:06:53.916Z,99090.66
2022-10-18T03:09:57.418Z,99074.47
2022-10-18T03:13:00.616Z,99059.25
2022-10-18T03:16:03.865Z,99082.34
2022-10-18T03:19:08.415Z,99074.34
2022-10-18T03:22:11.614Z,99062.53
2022-10-18T03:25:14.916Z,99071.56
2022-10-18T03:28:18.276Z,99047.75
2022-10-18T03:34:27.841Z,99061.25
2022-10-18T03:37:31.479Z,99059.50
2022-10-18T03:40:34.762Z,99071.09
2022-10-18T03:43:37.887Z,99058.41
2022-10-18T03:46:41.028Z,99062.53
2022-10-18T03:49:46.049Z,99062.69
2022-10-18T03:52:49.308Z,99057.56
2022-10-18T03:55:53.317Z,99057.56
2022-10-18T03:58:57.083Z,99009.16
2022-10-18T04:02:00.454Z,99054.81
2022-10-18T04:05:05.669Z,99054.63
2022-10-18T04:08:08.865Z,99050.06
2022-10-18T04:11:12.481Z,99041.59
2022-10-18T04:14:15.806Z,99045.78
2022-10-18T04:17:18.971Z,99055.13
2022-10-18T04:20:23.498Z,99048.97
2022-10-18T04:23:26.906Z,99056.81
2022-10-18T04:26:30.149Z,99028.41
2022-10-18T04:29:33.902Z,99045.41
2022-10-18T04:32:37.217Z,99049.88
2022-10-18T04:35:41.716Z,99027.63
2022-10-18T04:38:44.867Z,99042.16
2022-10-18T04:41:48.008Z,99048.97
2022-10-18T04:44:51.164Z,99048.00
2022-10-18T04:47:54.310Z,99038.59
2022-10-18T04:50:58.866Z,99034.19
2022-10-18T04:54:02.063Z,99011.28
2022-10-18T04:57:05.688Z,99033.94
2022-10-18T05:00:09.494Z,99032.44
2022-10-18T05:03:14.055Z,98994.88
2022-10-18T05:06:18.538Z,99032.09
2022-10-18T05:09:24.642Z,99043.25
2022-10-18T05:12:27.978Z,99028.50
2022-10-18T05:15:31.447Z,99018.22
2022-10-18T05:18:34.635Z,99033.47
2022-10-18T05:21:39.418Z,99029.97
2022-10-18T05:24:42.728Z,99017.78
2022-10-18T05:27:45.923Z,99014.31
2022-10-18T05:30:49.121Z,99009.06
2022-10-18T05:33:52.253Z,99014.44
2022-10-18T05:36:56.767Z,98981.28
2022-10-18T05:40:00.405Z,99010.09
2022-10-18T05:43:03.729Z,98991.66
2022-10-18T05:46:13.489Z,99007.50
2022-10-18T05:49:18.458Z,99007.56
2022-10-18T05:52:22.952Z,99016.66
2022-10-18T05:55:26.286Z,98989.72
2022-10-18T05:58:29.493Z,99029.75
2022-10-18T06:01:32.768Z,99029.66
2022-10-18T06:04:35.875Z,99010.06
2022-10-18T06:07:40.407Z,99026.38
2022-10-18T06:10:43.730Z,99027.44
2022-10-18T06:13:48.479Z,99031.91
2022-10-18T06:16:51.637Z,99029.38
2022-10-18T06:19:54.911Z,99031.06
2022-10-18T06:22:59.387Z,99004.00
2022-10-18T06:26:03.909Z,99044.69
2022-10-18T06:29:07.112Z,99043.69
2022-10-18T06:32:10.460Z,99036.16
2022-10-18T06:35:13.598Z,99052.16
2022-10-18T06:38:18.114Z,99058.47
2022-10-18T06:41:22.024Z,99050.69
2022-10-18T06:44:25.253Z,99052.28
2022-10-18T06:47:28.337Z,99047.63
2022-10-18T06:50:31.595Z,99052.75
2022-10-18T06:53:44.051Z,99053.91
2022-10-18T06:56:57.780Z,99046.41
2022-10-18T07:00:00.851Z,99055.00
2022-10-18T07:03:03.992Z,99049.81
2022-10-18T07:06:09.762Z,99051.44
2022-10-18T07:09:14.407Z,99050.13
2022-10-18T07:12:17.779Z,99041.41
2022-10-18T07:15:22.684Z,99031.94
2022-10-18T07:18:26.009Z,99027.09
2022-10-18T07:21:29.314Z,99038.16
2022-10-18T07:27:45.005Z,99046.31
2022-10-18T07:30:48.367Z,99050.97
2022-10-18T07:33:51.781Z,99049.03
2022-10-18T07:36:54.989Z,99050.50
2022-10-18T07:39:59.520Z,99041.28
2022-10-18T07:43:04.675Z,99032.19
2022-10-18T07:46:08.105Z,99035.13
2022-10-18T07:49:11.600Z,99035.03
2022-10-18T07:52:14.809Z,99043.38
2022-10-18T07:55:19.430Z,99049.75
2022-10-18T07:58:22.914Z,99039.53
2022-10-18T08:01:26.796Z,99037.09
2022-10-18T08:04:30.685Z,99023.50
2022-10-18T08:07:34.206Z,99033.63
2022-10-18T08:10:39.680Z,99031.88
2022-10-18T08:13:43.356Z,99034.63
2022-10-18T08:16:46.463Z,99044.84
2022-10-18T08:19:58.551Z,99030.88
2022-10-18T08:23:12.852Z,99025.78
2022-10-18T08:26:19.672Z,99029.72
2022-10-18T08:29:25.861Z,99027.91
2022-10-18T08:32:30.363Z,99027.47
2022-10-18T08:35:33.852Z,99039.44
2022-10-18T08:38:39.389Z,99035.38
2022-10-18T08:42:02.450Z,99047.81
2022-10-18T08:45:13.013Z,99033.53
2022-10-18T08:48:36.467Z,99028.31
2022-10-18T08:51:43.487Z,99027.19
2022-10-18T08:54:56.468Z,98991.03
2022-10-18T08:58:01.159Z,99004.56
2022-10-18T09:01:16.858Z,98987.94
2022-10-18T09:04:37.047Z,99003.06
2022-10-18T09:07:54.745Z,98989.75
2022-10-18T09:11:08.066Z,98979.63
2022-10-18T09:14:32.416Z,98977.63
2022-10-18T09:17:43.850Z,98976.81
2022-10-18T09:20:54.765Z,98971.84
2022-10-18T09:24:06.953Z,98980.09
2022-10-18T09:27:16.866Z,98976.66
2022-10-18T09:34:32.926Z,98976.59
2022-10-18T09:37:36.247Z,98977.06
2022-10-18T09:40:49.684Z,98971.22
2022-10-18T09:43:58.061Z,98974.13
2022-10-18T09:47:05.606Z,98972.06
2022-10-18T09:50:20.151Z,98975.63
2022-10-18T09:53:33.860Z,98981.94
2022-10-18T09:56:42.646Z,98977.28
2022-10-18T09:59:49.169Z,98972.91
2022-10-18T10:02:52.708Z,98977.69
2022-10-18T10:06:16.949Z,98971.22
2022-10-18T10:09:27.451Z,98942.59
2022-10-18T10:12:33.031Z,98975.00
2022-10-18T10:15:38.229Z,98977.31
2022-10-18T10:18:45.446Z,98985.09
2022-10-18T10:21:52.559Z,98982.97
2022-10-18T10:24:56.532Z,98975.63
2022-10-18T10:28:03.893Z,98979.09
2022-10-18T10:31:27.848Z,98981.06
2022-10-18T10:34:31.737Z,98974.25
2022-10-18T10:37:37.962Z,98976.88
2022-10-18T10:40:47.504Z,98991.00
2022-10-18T10:43:51.841Z,98985.19
2022-10-18T10:46:55.822Z,98981.06
2022-10-18T10:49:59.088Z,98990.50
2022-10-18T10:53:03.580Z,98988.69
2022-10-18T10:56:16.058Z,98984.66
2022-10-18T10:59:22.222Z,98979.88
2022-10-18T11:02:32.268Z,98980.53
2022-10-18T11:05:44.837Z,98984.69
2022-10-18T11:08:52.362Z,99001.41
2022-10-18T11:12:03.500Z,99021.63
2022-10-18T11:15:21.181Z,99029.75
2022-10-18T11:18:29.207Z,99036.31
2022-10-18T11:21:33.723Z,99036.47
2022-10-18T11:24:39.144Z,99026.19
2022-10-18T11:27:48.322Z,99022.34
2022-10-18T11:31:03.605Z,99039.94
2022-10-18T11:34:31.232Z,99036.19
2022-10-18T11:37:57.600Z,99041.44
2022-10-18T11:41:22.534Z,99033.47
2022-10-18T11:44:35.162Z,99083.47
2022-10-18T11:47:45.767Z,99084.91
2022-10-18T11:50:55.777Z,99083.81
2022-10-18T11:54:15.659Z,99084.53
2022-10-18T11:57:34.302Z,99077.47
2022-10-18T12:00:48.965Z,99078.22
2022-10-18T12:04:00.133Z,99067.75
2022-10-18T12:07:07.170Z,99078.22
2022-10-18T12:10:22.147Z,99079.41
2022-10-18T12:13:42.142Z,99080.94
2022-10-18T12:16:51.471Z,99075.53
2022-10-18T12:19:59.201Z,99072.84
2022-10-18T12:23:04.702Z,99058.31
2022-10-18T12:26:11.246Z,99062.03
2022-10-18T12:29:24.104Z,99052.47
2022-10-18T12:32:33.420Z,99061.78
2022-10-18T12:35:51.793Z,99041.97
2022-10-18T12:38:56.688Z,99054.09
2022-10-18T12:42:00.117Z,99049.19
2022-10-18T12:45:15.040Z,99039.56
2022-10-18T12:48:31.184Z,99037.22
2022-10-18T12:51:34.501Z,99045.31
2022-10-18T12:54:39.722Z,99036.16
2022-10-18T12:58:06.080Z,99039.91
2022-10-18T13:01:10.610Z,99046.94
2022-10-18T13:04:35.198Z,99041.09
2022-10-18T13:07:43.223Z,99038.91
2022-10-18T13:10:46.628Z,99035.63
2022-10-18T13:17:28.534Z,99022.44
2022-10-18T13:20:38.671Z,99016.50
2022-10-18T13:23:56.145Z,99018.03
2022-10-18T13:27:35.440Z,99031.97
2022-10-18T13:30:51.303Z,99026.44
2022-10-18T13:33:55.990Z,99007.50
2022-10-18T13:37:01.872Z,98991.53
2022-10-18T13:40:24.979Z,99035.00
2022-10-18T13:44:14.082Z,99040.81
2022-10-18T13:47:34.617Z,99040.81
2022-10-18T13:50:44.142Z,99040.63
2022-10-18T13:53:59.233Z,99046.72
2022-10-18T13:57:27.522Z,99067.31
2022-10-18T14:00:49.045Z,99056.19
2022-10-18T14:04:27.315Z,99048.09
2022-10-18T14:07:34.069Z,99063.81
2022-10-18T14:11:00.941Z,99053.56
2022-10-18T14:14:14.108Z,99056.72
2022-10-18T14:17:28.049Z,99065.63
2022-10-18T14:20:48.996Z,99035.13
2022-10-18T14:23:54.833Z,99061.53
2022-10-18T14:27:17.569Z,99062.47
2022-10-18T14:30:22.073Z,99032.31
2022-10-18T14:33:27.642Z,99054.56
2022-10-18T14:36:36.367Z,99061.53
2022-10-18T14:39:40.930Z,99051.59
2022-10-18T14:42:49.892Z,99057.13
2022-10-18T14:45:53.096Z,99060.66
2022-10-18T14:48:58.668Z,99058.41
2022-10-18T14:52:02.029Z,99046.72
2022-10-18T14:55:16.328Z,99045.53
2022-10-18T14:58:20.234Z,99046.84
2022-10-18T15:01:26.810Z,99013.72
2022-10-18T15:04:33.097Z,99040.56
2022-10-18T15:07:36.781Z,99037.34
2022-10-18T15:10:42.068Z,99020.13
2022-10-18T15:13:50.323Z,99041.41
2022-10-18T15:16:57.167Z,99058.47
2022-10-18T15:20:06.161Z,99049.94
2022-10-18T15:23:25.039Z,99033.81
2022-10-18T15:26:31.585Z,99063.69
2022-10-18T15:29:37.639Z,99066.25
2022-10-18T15:34:28.513Z,99059.16
2022-10-18T15:37:37.590Z,99075.19
2022-10-18T15:40:42.440Z,99080.59
2022-10-18T15:43:45.604Z,99078.72
2022-10-18T15:46:50.072Z,99070.72
2022-10-18T15:49:56.634Z,99075.38
2022-10-18T15:53:35.260Z,99073.66
2022-10-18T15:56:40.028Z,99042.25
2022-10-18T15:59:52.894Z,99069.63
2022-10-18T16:02:56.486Z,99075.50
2022-10-18T16:06:05.431Z,99069.72
2022-10-18T16:09:16.442Z,99065.53
2022-10-18T16:12:19.651Z,99015.41
2022-10-18T16:15:23.245Z,99082.59
2022-10-18T16:18:27.607Z,99096.81
2022-10-18T16:21:32.822Z,99097.91
2022-10-18T16:24:39.941Z,99080.84
2022-10-18T16:27:43.349Z,99069.94
2022-10-18T16:30:53.756Z,99098.22
2022-10-18T16:34:00.047Z,99103.25
2022-10-18T16:37:03.248Z,99089.34
2022-10-18T16:40:22.911Z,99112.56
2022-10-18T16:43:26.287Z,99119.66
2022-10-18T16:46:31.987Z,99122.84
2022-10-18T16:49:35.502Z,99122.19
2022-10-18T16:52:38.663Z,99129.69
2022-10-18T16:55:44.048Z,99137.41
2022-10-18T16:58:48.377Z,99135.44
2022-10-18T17:01:51.569Z,99138.06
2022-10-18T17:04:54.771Z,99154.34
2022-10-18T17:07:58.315Z,99156.69
2022-10-18T17:11:02.929Z,99155.13
2022-10-18T17:14:06.162Z,99125.84
2022-10-18T17:17:12.751Z,99132.22
2022-10-18T17:20:21.167Z,99139.59
2022-10-18T17:23:24.496Z,99156.88
2022-10-18T17:26:30.173Z,99163.44
2022-10-18T17:29:33.654Z,99166.13
2022-10-18T17:32:37.235Z,99162.81
2022-10-18T17:35:40.616Z,99164.59
2022-10-18T17:38:44.045Z,99167.13
2022-10-18T17:41:48.803Z,99166.06
2022-10-18T17:44:55.520Z,99165.00
2022-10-18T17:48:01.103Z,99162.34
2022-10-18T17:51:08.467Z,99168.88
2022-10-18T17:54:12.076Z,99182.97
2022-10-18T17:57:17.588Z,99181.00
2022-10-18T18:00:21.297Z,99172.31
2022-10-18T18:03:24.758Z,99181.41
2022-10-18T18:06:31.854Z,99175.13
2022-10-18T18:09:35.231Z,99137.19
2022-10-18T18:12:40.362Z,99180.34
2022-10-18T18:15:43.727Z,99178.97
2022-10-18T18:18:49.657Z,99154.44
2022-10-18T18:21:55.090Z,99168.03
2022-10-18T18:24:58.696Z,99171.06
2022-10-18T18:28:06.626Z,99171.72
2022-10-18T18:31:17.441Z,99146.38
2022-10-18T18:34:22.177Z,99160.47
2022-10-18T18:37:25.544Z,99181.03
2022-10-18T18:40:28.876Z,99185.06
2022-10-18T18:43:35.076Z,99189.41
2022-10-18T18:46:38.614Z,99147.53
2022-10-18T18:49:42.109Z,99180.47
2022-10-18T18:52:45.268Z,99181.19
2022-10-18T18:55:50.720Z,99179.34
2022-10-18T18:58:56.714Z,99159.41
2022-10-18T19:01:59.895Z,99185.47
2022-10-18T19:05:03.291Z,99184.88
2022-10-18T19:08:06.978Z,99175.41
2022-10-18T19:11:10.200Z,99142.97
2022-10-18T19:14:15.131Z,99184.91
2022-10-18T19:17:18.407Z,99184.94
2022-10-18T19:20:21.707Z,99182.81
2022-10-18T19:26:33.267Z,99153.78
2022-10-18T19:29:39.458Z,99157.38
2022-10-18T19:32:42.609Z,99181.06
2022-10-18T19:35:45.882Z,99169.59
2022-10-18T19:38:49.166Z,99171.75
2022-10-18T19:41:55.128Z,99179.19
2022-10-18T19:44:59.650Z,99185.50
2022-10-18T19:48:02.846Z,99190.19
2022-10-18T19:51:08.924Z,99189.41
2022-10-18T19:54:13.949Z,99185.53
2022-10-18T19:57:17.117Z,99188.00
2022-10-18T20:00:21.654Z,99192.66
2022-10-18T20:03:25.981Z,99193.75
2022-10-18T20:06:29.315Z,99177.91
2022-10-18T20:09:32.511Z,99194.47
2022-10-18T20:12:36.479Z,99195.56
2022-10-18T20:15:41.187Z,99187.59
2022-10-18T20:18:44.705Z,99190.78
2022-10-18T20:21:48.170Z,99181.28
2022-10-18T20:24:51.548Z,99183.88
2022-10-18T20:27:55.457Z,99164.59
2022-10-18T20:31:05.200Z,99180.41
2022-10-18T20:34:12.123Z,99179.78
2022-10-18T20:37:15.297Z,99190.41
2022-10-18T20:40:18.553Z,99185.94
2022-10-18T20:43:21.786Z,99187.19
2022-10-18T20:46:26.868Z,99188.44
2022-10-18T20:49:30.022Z,99195.50
2022-10-18T20:52:33.592Z,99194.28
2022-10-18T20:55:38.709Z,99182.13
2022-10-18T20:58:43.587Z,99189.28
2022-10-18T21:01:48.380Z,99189.13
2022-10-18T21:04:51.793Z,99197.25
2022-10-18T21:07:54.992Z,99204.28
2022-10-18T21:11:01.488Z,99206.34
2022-10-18T21:14:06.015Z,99197.75
2022-10-18T21:17:10.544Z,99192.00
2022-10-18T21:20:13.728Z,99202.38
2022-10-18T21:23:16.900Z,99207.53
2022-10-18T21:26:21.889Z,99206.53
2022-10-18T21:29:25.660Z,99203.16
2022-10-18T21:34:27.395Z,99202.81
2022-10-18T21:37:30.493Z,99200.28
2022-10-18T21:40:36.285Z,99205.56
2022-10-18T21:43:41.592Z,99202.97
2022-10-18T21:46:45.126Z,99192.13
2022-10-18T21:49:49.605Z,99173.13
2022-10-18T21:52:52.727Z,99196.56
2022-10-18T21:55:55.825Z,99190.09
2022-10-18T21:59:00.238Z,99176.09
2022-10-18T22:02:03.287Z,99178.59
2022-10-18T22:05:11.269Z,99179.59
2022-10-18T22:08:15.315Z,99175.72
2022-10-18T22:11:19.573Z,99151.63
2022-10-18T22:14:24.142Z,99177.19
2022-10-18T22:17:29.327Z,99176.78
2022-10-18T22:20:34.034Z,99157.13
2022-10-18T22:23:39.141Z,99155.78
2022-10-18T22:26:43.966Z,99165.38
2022-10-18T22:29:47.176Z,99163.78
2022-10-18T22:32:50.464Z,99155.91
2022-10-18T22:35:54.911Z,99154.34
2022-10-18T22:38:58.063Z,99159.91
2022-10-18T22:42:01.232Z,99158.50
2022-10-18T22:45:04.702Z,99161.41
2022-10-18T22:48:07.922Z,99157.06
2022-10-18T22:51:13.189Z,99155.09
2022-10-18T22:54:16.514Z,99149.44
2022-10-18T22:57:19.629Z,99156.22
2022-10-18T23:00:22.885Z,99146.69
2022-10-18T23:03:26.095Z,99155.63
2022-10-18T23:06:32.059Z,99155.31
2022-10-18T23:09:35.352Z,99146.19
2022-10-18T23:12:38.496Z,99146.91
2022-10-18T23:15:41.642Z,99154.13
2022-10-18T23:18:45.101Z,99152.16
2022-10-18T23:21:49.574Z,99152.09
2022-10-18T23:24:52.709Z,99148.94
2022-10-18T23:27:55.874Z,99166.84
2022-10-18T23:30:58.969Z,99157.66
2022-10-18T23:34:03.955Z,99166.75
2022-10-18T23:37:08.588Z,99158.34
2022-10-18T23:40:12.442Z,99150.25
2022-10-18T23:43:15.550Z,99147.88
2022-10-18T23:46:19.565Z,99164.69
2022-10-18T23:49:22.724Z,99163.25
2022-10-18T23:52:27.294Z,99169.41
2022-10-18T23:55:30.713Z,99157.31
2022-10-18T23:58:34.958Z,99169.34
